Cash's Hourly Summary for Wednesday, March 15, 2017
Hour Temp
(f)
RH
(%)
Solar Rad.
(MJ/m2)
Rainfall
(in)
Wind
(mph)
3/15/2017 12:00 AM 48 52 0 0 3.25
3/15/2017 1:00 AM 47 53 0 0 7.01
3/15/2017 2:00 AM 45 59 0 0 7.09
3/15/2017 3:00 AM 45 61 0 0 7.26
3/15/2017 4:00 AM 46 63 0 0 6.31
3/15/2017 5:00 AM 46 68 0 0 6.92
3/15/2017 6:00 AM 45 65 0 0 7.63
3/15/2017 7:00 AM 44 65 0 0 7.01
3/15/2017 8:00 AM 42 64 0.01 0 7.77
3/15/2017 9:00 AM 41 68 0.17 0 7.62
3/15/2017 10:00 AM 42 68 0.59 0 7.79
3/15/2017 11:00 AM 44 63 1.17 0 7.32
3/15/2017 12:00 PM 47 58 1.82 0 7.05
3/15/2017 1:00 PM 50 52 2.73 0 6.67
3/15/2017 2:00 PM 54 48 2.96 0 6.21
3/15/2017 3:00 PM 56 45 2.91 0 6.32
3/15/2017 4:00 PM 58 42 2.49 0 6.9
3/15/2017 5:00 PM 58 41 2.05 0 6.48
3/15/2017 6:00 PM 58 43 1.36 0 6.12
3/15/2017 7:00 PM 58 44 0.6 0 5.26
3/15/2017 8:00 PM 55 49 0.06 0 3.16
3/15/2017 9:00 PM 53 56 0 0 3.06
3/15/2017 10:00 PM 51 61 0 0 3.52
3/15/2017 11:00 PM 50 64 0 0 4.39
Data Summary 49 56 18.92 0.00 6.17